sensor_id;sensor_type;location;lat;lon;timestamp;pressure;altitude;pressure_sealevel;temperature;humidity
41467;BME280;27205;53.690;19.948;2022-07-29T00:02:35;100640.73;;;13.36;70.75
41467;BME280;27205;53.690;19.948;2022-07-29T00:07:39;100640.77;;;13.31;71.37
41467;BME280;27205;53.690;19.948;2022-07-29T00:12:43;100640.98;;;13.27;71.53
41467;BME280;27205;53.690;19.948;2022-07-29T00:17:48;100644.61;;;13.21;71.34
41467;BME280;27205;53.690;19.948;2022-07-29T00:22:51;100645.77;;;13.16;71.56
41467;BME280;27205;53.690;19.948;2022-07-29T00:27:56;100641.64;;;13.14;71.75
41467;BME280;27205;53.690;19.948;2022-07-29T00:32:59;100640.70;;;13.10;71.85
41467;BME280;27205;53.690;19.948;2022-07-29T00:38:03;100639.60;;;13.06;72.32
41467;BME280;27205;53.690;19.948;2022-07-29T00:43:06;100637.72;;;13.00;72.22
41467;BME280;27205;53.690;19.948;2022-07-29T00:48:10;100637.02;;;12.94;72.64
41467;BME280;27205;53.690;19.948;2022-07-29T00:53:13;100640.20;;;12.88;72.48
41467;BME280;27205;53.690;19.948;2022-07-29T00:58:17;100637.15;;;12.83;72.90
41467;BME280;27205;53.690;19.948;2022-07-29T01:03:20;100636.28;;;12.76;72.89
41467;BME280;27205;53.690;19.948;2022-07-29T01:08:23;100634.13;;;12.72;73.52
41467;BME280;27205;53.690;19.948;2022-07-29T01:13:27;100639.36;;;12.68;73.20
41467;BME280;27205;53.690;19.948;2022-07-29T01:18:34;100642.85;;;12.61;73.65
41467;BME280;27205;53.690;19.948;2022-07-29T01:40:40;100642.17;;;12.39;74.84
41467;BME280;27205;53.690;19.948;2022-07-29T01:45:48;100640.55;;;12.35;75.48
41467;BME280;27205;53.690;19.948;2022-07-29T01:51:02;100641.23;;;12.32;74.94
41467;BME280;27205;53.690;19.948;2022-07-29T01:56:09;100639.23;;;12.29;75.07
41467;BME280;27205;53.690;19.948;2022-07-29T02:01:14;100639.81;;;12.27;75.11
41467;BME280;27205;53.690;19.948;2022-07-29T02:06:21;100638.96;;;12.23;75.12
41467;BME280;27205;53.690;19.948;2022-07-29T02:11:25;100644.77;;;12.19;75.26
41467;BME280;27205;53.690;19.948;2022-07-29T02:16:30;100647.41;;;12.14;75.45
41467;BME280;27205;53.690;19.948;2022-07-29T02:21:35;100645.83;;;12.10;75.60
41467;BME280;27205;53.690;19.948;2022-07-29T02:26:40;100641.30;;;12.03;76.04
41467;BME280;27205;53.690;19.948;2022-07-29T02:31:45;100643.77;;;12.01;76.10
41467;BME280;27205;53.690;19.948;2022-07-29T02:36:52;100646.80;;;11.99;75.97
41467;BME280;27205;53.690;19.948;2022-07-29T02:41:57;100645.35;;;11.92;76.02
41467;BME280;27205;53.690;19.948;2022-07-29T02:52:46;100646.63;;;11.81;76.35
41467;BME280;27205;53.690;19.948;2022-07-29T02:58:03;100648.08;;;11.81;76.40
41467;BME280;27205;53.690;19.948;2022-07-29T03:03:11;100651.21;;;11.79;76.60
41467;BME280;27205;53.690;19.948;2022-07-29T03:08:15;100652.16;;;11.79;77.05
41467;BME280;27205;53.690;19.948;2022-07-29T03:13:20;100652.59;;;11.70;77.00
41467;BME280;27205;53.690;19.948;2022-07-29T03:18:24;100651.08;;;11.68;77.24
41467;BME280;27205;53.690;19.948;2022-07-29T03:23:28;100648.23;;;11.68;77.58
41467;BME280;27205;53.690;19.948;2022-07-29T03:28:38;100649.93;;;11.79;77.86
41467;BME280;27205;53.690;19.948;2022-07-29T03:33:43;100647.42;;;11.95;77.90
41467;BME280;27205;53.690;19.948;2022-07-29T03:38:47;100645.09;;;12.14;78.07
41467;BME280;27205;53.690;19.948;2022-07-29T03:43:51;100649.45;;;12.33;78.26
41467;BME280;27205;53.690;19.948;2022-07-29T03:48:59;100645.10;;;12.50;78.27
41467;BME280;27205;53.690;19.948;2022-07-29T03:54:05;100644.28;;;12.58;78.14
41467;BME280;27205;53.690;19.948;2022-07-29T03:59:15;100646.01;;;12.57;78.09
41467;BME280;27205;53.690;19.948;2022-07-29T04:04:20;100648.50;;;12.64;78.31
41467;BME280;27205;53.690;19.948;2022-07-29T04:09:24;100645.13;;;12.88;78.76
41467;BME280;27205;53.690;19.948;2022-07-29T04:14:27;100646.70;;;13.15;79.20
41467;BME280;27205;53.690;19.948;2022-07-29T04:19:31;100648.76;;;13.39;78.71
41467;BME280;27205;53.690;19.948;2022-07-29T04:24:35;100649.81;;;13.65;78.30
41467;BME280;27205;53.690;19.948;2022-07-29T04:29:38;100663.11;;;13.91;78.50
41467;BME280;27205;53.690;19.948;2022-07-29T04:34:59;100667.59;;;14.12;78.22
41467;BME280;27205;53.690;19.948;2022-07-29T04:40:03;100670.85;;;14.27;78.35
41467;BME280;27205;53.690;19.948;2022-07-29T04:45:07;100678.16;;;14.44;78.39
41467;BME280;27205;53.690;19.948;2022-07-29T04:50:10;100678.80;;;14.58;78.13
41467;BME280;27205;53.690;19.948;2022-07-29T04:55:14;100676.05;;;14.57;78.18
41467;BME280;27205;53.690;19.948;2022-07-29T05:00:17;100675.53;;;14.74;78.42
41467;BME280;27205;53.690;19.948;2022-07-29T05:05:20;100675.98;;;14.93;78.56
41467;BME280;27205;53.690;19.948;2022-07-29T05:10:24;100667.71;;;15.11;78.55
41467;BME280;27205;53.690;19.948;2022-07-29T05:15:27;100669.59;;;15.28;78.51
41467;BME280;27205;53.690;19.948;2022-07-29T05:20:31;100670.56;;;15.36;78.32
41467;BME280;27205;53.690;19.948;2022-07-29T05:25:35;100669.67;;;15.57;78.30
41467;BME280;27205;53.690;19.948;2022-07-29T05:30:45;100672.23;;;15.90;78.29
41467;BME280;27205;53.690;19.948;2022-07-29T05:35:49;100667.81;;;16.16;78.12
41467;BME280;27205;53.690;19.948;2022-07-29T05:40:52;100667.93;;;16.47;77.66
41467;BME280;27205;53.690;19.948;2022-07-29T05:45:56;100674.53;;;16.81;77.79
41467;BME280;27205;53.690;19.948;2022-07-29T05:51:00;100677.42;;;17.19;77.10
41467;BME280;27205;53.690;19.948;2022-07-29T05:56:04;100677.58;;;17.52;76.76
41467;BME280;27205;53.690;19.948;2022-07-29T06:01:10;100675.36;;;17.65;76.20
41467;BME280;27205;53.690;19.948;2022-07-29T06:06:13;100670.48;;;17.91;76.09
41467;BME280;27205;53.690;19.948;2022-07-29T06:11:17;100674.27;;;18.23;75.61
41467;BME280;27205;53.690;19.948;2022-07-29T06:16:20;100679.55;;;18.48;75.27
41467;BME280;27205;53.690;19.948;2022-07-29T06:21:32;100677.16;;;18.61;74.73
41467;BME280;27205;53.690;19.948;2022-07-29T06:26:41;100681.54;;;18.80;74.62
41467;BME280;27205;53.690;19.948;2022-07-29T06:31:44;100679.58;;;19.13;74.13
41467;BME280;27205;53.690;19.948;2022-07-29T06:36:48;100680.59;;;19.14;72.37
41467;BME280;27205;53.690;19.948;2022-07-29T06:41:54;100684.59;;;19.20;72.37
41467;BME280;27205;53.690;19.948;2022-07-29T06:46:57;100684.27;;;19.51;71.89
41467;BME280;27205;53.690;19.948;2022-07-29T06:52:01;100684.61;;;19.53;70.65
41467;BME280;27205;53.690;19.948;2022-07-29T06:57:05;100680.34;;;19.53;69.81
41467;BME280;27205;53.690;19.948;2022-07-29T07:02:08;100677.73;;;19.44;68.54
41467;BME280;27205;53.690;19.948;2022-07-29T07:07:11;100677.28;;;19.22;67.76
41467;BME280;27205;53.690;19.948;2022-07-29T07:12:15;100678.42;;;19.34;68.53
41467;BME280;27205;53.690;19.948;2022-07-29T07:17:18;100678.48;;;19.71;68.45
41467;BME280;27205;53.690;19.948;2022-07-29T07:22:22;100669.55;;;19.90;66.08
41467;BME280;27205;53.690;19.948;2022-07-29T07:27:25;100673.79;;;19.67;65.38
41467;BME280;27205;53.690;19.948;2022-07-29T07:32:30;100672.60;;;19.60;64.98
41467;BME280;27205;53.690;19.948;2022-07-29T07:37:33;100678.49;;;19.71;64.58
41467;BME280;27205;53.690;19.948;2022-07-29T07:42:39;100675.52;;;19.99;64.97
41467;BME280;27205;53.690;19.948;2022-07-29T07:47:44;100678.88;;;20.20;62.30
41467;BME280;27205;53.690;19.948;2022-07-29T07:52:52;100675.34;;;20.31;62.37
41467;BME280;27205;53.690;19.948;2022-07-29T07:57:56;100682.80;;;20.47;60.72
41467;BME280;27205;53.690;19.948;2022-07-29T08:02:59;100684.22;;;20.48;61.36
41467;BME280;27205;53.690;19.948;2022-07-29T08:08:03;100685.83;;;20.70;60.83
41467;BME280;27205;53.690;19.948;2022-07-29T08:13:07;100690.84;;;20.89;60.86
41467;BME280;27205;53.690;19.948;2022-07-29T08:18:14;100688.79;;;21.12;59.87
41467;BME280;27205;53.690;19.948;2022-07-29T08:23:18;100682.67;;;21.31;59.73
41467;BME280;27205;53.690;19.948;2022-07-29T08:28:29;100682.86;;;21.39;58.69
41467;BME280;27205;53.690;19.948;2022-07-29T08:33:32;100680.52;;;21.42;56.41
41467;BME280;27205;53.690;19.948;2022-07-29T08:38:36;100686.20;;;21.16;55.30
41467;BME280;27205;53.690;19.948;2022-07-29T08:43:40;100690.21;;;21.17;55.73
41467;BME280;27205;53.690;19.948;2022-07-29T08:48:44;100685.85;;;21.39;56.21
41467;BME280;27205;53.690;19.948;2022-07-29T08:53:49;100689.30;;;21.49;55.38
41467;BME280;27205;53.690;19.948;2022-07-29T08:58:53;100687.17;;;21.81;56.09
41467;BME280;27205;53.690;19.948;2022-07-29T09:03:59;100681.96;;;22.10;55.71
41467;BME280;27205;53.690;19.948;2022-07-29T09:09:04;100676.25;;;22.08;53.41
41467;BME280;27205;53.690;19.948;2022-07-29T09:14:11;100678.96;;;21.96;53.56
41467;BME280;27205;53.690;19.948;2022-07-29T09:19:28;100678.45;;;21.89;52.15
41467;BME280;27205;53.690;19.948;2022-07-29T09:24:43;100671.55;;;22.04;52.34
41467;BME280;27205;53.690;19.948;2022-07-29T09:35:17;100673.08;;;22.78;51.56
41467;BME280;27205;53.690;19.948;2022-07-29T09:40:27;100675.74;;;22.98;50.67
41467;BME280;27205;53.690;19.948;2022-07-29T09:45:34;100677.77;;;23.22;50.35
41467;BME280;27205;53.690;19.948;2022-07-29T09:50:42;100675.15;;;23.34;48.95
41467;BME280;27205;53.690;19.948;2022-07-29T09:55:50;100669.04;;;23.30;48.45
41467;BME280;27205;53.690;19.948;2022-07-29T10:00:56;100668.39;;;23.13;47.97
41467;BME280;27205;53.690;19.948;2022-07-29T10:06:18;100668.15;;;22.77;47.90
41467;BME280;27205;53.690;19.948;2022-07-29T10:11:22;100662.55;;;22.45;47.47
41467;BME280;27205;53.690;19.948;2022-07-29T10:16:25;100658.98;;;22.72;48.37
41467;BME280;27205;53.690;19.948;2022-07-29T10:21:36;100655.98;;;22.71;47.03
41467;BME280;27205;53.690;19.948;2022-07-29T10:26:41;100655.01;;;22.26;46.26
41467;BME280;27205;53.690;19.948;2022-07-29T10:31:52;100655.87;;;22.27;46.87
41467;BME280;27205;53.690;19.948;2022-07-29T10:42:39;100658.77;;;22.82;45.20
41467;BME280;27205;53.690;19.948;2022-07-29T10:47:44;100655.23;;;22.58;44.99
41467;BME280;27205;53.690;19.948;2022-07-29T11:03:58;100653.05;;;23.24;43.13
41467;BME280;27205;53.690;19.948;2022-07-29T11:09:19;100650.48;;;23.51;42.60
41467;BME280;27205;53.690;19.948;2022-07-29T11:25:38;100645.14;;;24.03;42.58
41467;BME280;27205;53.690;19.948;2022-07-29T11:30:54;100632.30;;;24.11;42.35
41467;BME280;27205;53.690;19.948;2022-07-29T11:36:10;100626.40;;;24.36;41.84
41467;BME280;27205;53.690;19.948;2022-07-29T11:41:25;100620.83;;;24.40;40.32
41467;BME280;27205;53.690;19.948;2022-07-29T11:46:49;100619.44;;;24.40;40.81
41467;BME280;27205;53.690;19.948;2022-07-29T11:51:57;100611.92;;;24.63;40.71
41467;BME280;27205;53.690;19.948;2022-07-29T11:57:01;100603.89;;;25.05;40.67
41467;BME280;27205;53.690;19.948;2022-07-29T12:02:05;100607.60;;;25.15;39.41
41467;BME280;27205;53.690;19.948;2022-07-29T12:07:33;100601.45;;;24.92;39.34
41467;BME280;27205;53.690;19.948;2022-07-29T12:12:37;100602.91;;;25.07;39.41
41467;BME280;27205;53.690;19.948;2022-07-29T12:17:41;100606.05;;;25.46;39.46
41467;BME280;27205;53.690;19.948;2022-07-29T12:22:45;100608.58;;;25.99;38.86
41467;BME280;27205;53.690;19.948;2022-07-29T12:27:58;100612.86;;;26.11;37.97
41467;BME280;27205;53.690;19.948;2022-07-29T12:33:13;100609.08;;;26.30;37.97
41467;BME280;27205;53.690;19.948;2022-07-29T12:38:17;100611.38;;;26.59;37.65
41467;BME280;27205;53.690;19.948;2022-07-29T12:43:22;100617.92;;;26.80;37.49
41467;BME280;27205;53.690;19.948;2022-07-29T12:48:38;100612.33;;;27.18;37.07
41467;BME280;27205;53.690;19.948;2022-07-29T12:54:11;100606.36;;;27.26;36.07
41467;BME280;27205;53.690;19.948;2022-07-29T12:59:18;100608.62;;;27.49;36.73
41467;BME280;27205;53.690;19.948;2022-07-29T13:04:27;100601.81;;;27.69;36.69
41467;BME280;27205;53.690;19.948;2022-07-29T13:09:44;100603.14;;;28.13;36.65
41467;BME280;27205;53.690;19.948;2022-07-29T13:14:51;100602.09;;;27.98;35.98
41467;BME280;27205;53.690;19.948;2022-07-29T13:20:06;100601.52;;;27.67;35.57
41467;BME280;27205;53.690;19.948;2022-07-29T13:25:12;100599.49;;;27.40;35.59
41467;BME280;27205;53.690;19.948;2022-07-29T13:30:15;100599.52;;;27.53;35.27
41467;BME280;27205;53.690;19.948;2022-07-29T13:35:19;100592.13;;;27.40;34.91
41467;BME280;27205;53.690;19.948;2022-07-29T13:40:23;100588.80;;;27.76;35.02
41467;BME280;27205;53.690;19.948;2022-07-29T13:45:26;100593.39;;;27.46;34.58
41467;BME280;27205;53.690;19.948;2022-07-29T13:50:31;100585.13;;;27.08;34.53
41467;BME280;27205;53.690;19.948;2022-07-29T13:55:34;100575.81;;;27.02;34.51
41467;BME280;27205;53.690;19.948;2022-07-29T14:00:37;100573.84;;;27.77;33.65
41467;BME280;27205;53.690;19.948;2022-07-29T14:05:41;100576.20;;;28.29;32.66
41467;BME280;27205;53.690;19.948;2022-07-29T14:10:44;100573.64;;;27.69;33.35
41467;BME280;27205;53.690;19.948;2022-07-29T14:15:47;100568.15;;;27.07;33.76
41467;BME280;27205;53.690;19.948;2022-07-29T14:20:51;100570.67;;;27.14;33.93
41467;BME280;27205;53.690;19.948;2022-07-29T14:25:55;100567.63;;;27.74;33.37
41467;BME280;27205;53.690;19.948;2022-07-29T14:30:58;100564.72;;;28.92;32.85
41467;BME280;27205;53.690;19.948;2022-07-29T14:36:02;100570.00;;;31.40;30.16
41467;BME280;27205;53.690;19.948;2022-07-29T14:41:07;100579.36;;;34.74;27.54
41467;BME280;27205;53.690;19.948;2022-07-29T14:46:11;100585.83;;;39.27;23.58
41467;BME280;27205;53.690;19.948;2022-07-29T14:51:15;100586.83;;;42.54;22.47
41467;BME280;27205;53.690;19.948;2022-07-29T14:56:18;100580.20;;;45.57;20.96
41467;BME280;27205;53.690;19.948;2022-07-29T15:01:39;100571.11;;;43.85;20.25
41467;BME280;27205;53.690;19.948;2022-07-29T15:06:42;100574.98;;;45.41;17.04
41467;BME280;27205;53.690;19.948;2022-07-29T15:11:46;100574.23;;;46.88;14.99
41467;BME280;27205;53.690;19.948;2022-07-29T15:16:49;100574.45;;;46.82;14.88
41467;BME280;27205;53.690;19.948;2022-07-29T15:21:54;100571.84;;;47.97;14.41
41467;BME280;27205;53.690;19.948;2022-07-29T15:27:01;100560.28;;;43.91;14.81
41467;BME280;27205;53.690;19.948;2022-07-29T15:32:04;100548.77;;;40.01;16.57
41467;BME280;27205;53.690;19.948;2022-07-29T15:37:08;100537.59;;;37.95;17.54
41467;BME280;27205;53.690;19.948;2022-07-29T15:42:13;100535.89;;;38.49;17.50
41467;BME280;27205;53.690;19.948;2022-07-29T15:47:19;100541.39;;;41.83;16.36
41467;BME280;27205;53.690;19.948;2022-07-29T15:52:22;100543.88;;;43.47;15.72
41467;BME280;27205;53.690;19.948;2022-07-29T15:57:28;100543.81;;;45.18;15.16
41467;BME280;27205;53.690;19.948;2022-07-29T16:02:31;100545.72;;;46.69;14.93
41467;BME280;27205;53.690;19.948;2022-07-29T16:07:34;100541.39;;;46.71;14.10
41467;BME280;27205;53.690;19.948;2022-07-29T16:12:37;100519.27;;;44.72;13.91
41467;BME280;27205;53.690;19.948;2022-07-29T16:17:40;100513.02;;;44.29;13.80
41467;BME280;27205;53.690;19.948;2022-07-29T16:22:44;100508.86;;;43.54;13.83
41467;BME280;27205;53.690;19.948;2022-07-29T16:27:47;100502.64;;;43.01;14.06
41467;BME280;27205;53.690;19.948;2022-07-29T16:32:51;100483.08;;;38.02;16.41
41467;BME280;27205;53.690;19.948;2022-07-29T16:37:54;100473.81;;;34.61;18.96
41467;BME280;27205;53.690;19.948;2022-07-29T16:42:57;100474.00;;;34.58;19.52
41467;BME280;27205;53.690;19.948;2022-07-29T16:48:01;100471.99;;;33.04;20.88
41467;BME280;27205;53.690;19.948;2022-07-29T16:53:05;100468.95;;;31.60;22.07
41467;BME280;27205;53.690;19.948;2022-07-29T16:58:09;100467.41;;;30.09;23.39
41467;BME280;27205;53.690;19.948;2022-07-29T17:03:13;100466.95;;;31.05;23.39
41467;BME280;27205;53.690;19.948;2022-07-29T17:08:16;100473.90;;;33.23;22.48
41467;BME280;27205;53.690;19.948;2022-07-29T17:13:19;100486.41;;;36.34;20.89
41467;BME280;27205;53.690;19.948;2022-07-29T17:18:22;100483.62;;;38.18;19.33
41467;BME280;27205;53.690;19.948;2022-07-29T17:23:27;100481.13;;;38.14;19.02
41467;BME280;27205;53.690;19.948;2022-07-29T17:28:31;100484.23;;;38.47;18.74
41467;BME280;27205;53.690;19.948;2022-07-29T17:33:34;100489.67;;;38.37;18.69
41467;BME280;27205;53.690;19.948;2022-07-29T17:38:37;100490.27;;;38.03;19.01
41467;BME280;27205;53.690;19.948;2022-07-29T17:43:41;100492.56;;;38.15;19.01
41467;BME280;27205;53.690;19.948;2022-07-29T17:48:45;100492.08;;;37.88;19.08
41467;BME280;27205;53.690;19.948;2022-07-29T17:53:49;100492.77;;;36.83;19.42
41467;BME280;27205;53.690;19.948;2022-07-29T17:58:53;100489.96;;;35.26;19.97
41467;BME280;27205;53.690;19.948;2022-07-29T18:03:58;100484.63;;;31.92;21.53
41467;BME280;27205;53.690;19.948;2022-07-29T18:09:02;100484.96;;;29.20;23.85
41467;BME280;27205;53.690;19.948;2022-07-29T18:14:06;100485.27;;;27.21;25.42
41467;BME280;27205;53.690;19.948;2022-07-29T18:19:09;100485.46;;;25.86;26.59
41467;BME280;27205;53.690;19.948;2022-07-29T18:24:12;100487.54;;;24.75;27.67
41467;BME280;27205;53.690;19.948;2022-07-29T18:29:16;100487.83;;;23.81;29.38
41467;BME280;27205;53.690;19.948;2022-07-29T18:34:19;100490.95;;;22.95;31.35
41467;BME280;27205;53.690;19.948;2022-07-29T18:39:22;100487.34;;;22.15;31.66
41467;BME280;27205;53.690;19.948;2022-07-29T18:44:26;100488.86;;;21.58;32.67
41467;BME280;27205;53.690;19.948;2022-07-29T18:49:29;100484.41;;;21.07;35.45
41467;BME280;27205;53.690;19.948;2022-07-29T18:54:32;100480.95;;;20.58;37.18
41467;BME280;27205;53.690;19.948;2022-07-29T18:59:36;100481.54;;;20.16;37.22
41467;BME280;27205;53.690;19.948;2022-07-29T19:04:39;100478.19;;;19.82;37.52
41467;BME280;27205;53.690;19.948;2022-07-29T19:09:44;100479.05;;;19.54;38.02
41467;BME280;27205;53.690;19.948;2022-07-29T19:14:51;100484.95;;;19.29;38.59
41467;BME280;27205;53.690;19.948;2022-07-29T19:19:54;100488.40;;;19.06;38.84
41467;BME280;27205;53.690;19.948;2022-07-29T19:24:58;100487.27;;;18.83;39.12
41467;BME280;27205;53.690;19.948;2022-07-29T19:30:02;100488.88;;;18.61;40.33
41467;BME280;27205;53.690;19.948;2022-07-29T19:35:08;100491.86;;;18.44;42.45
41467;BME280;27205;53.690;19.948;2022-07-29T19:40:28;100488.73;;;18.20;42.99
41467;BME280;27205;53.690;19.948;2022-07-29T19:45:31;100487.20;;;18.00;44.30
41467;BME280;27205;53.690;19.948;2022-07-29T19:50:35;100486.84;;;17.84;45.62
41467;BME280;27205;53.690;19.948;2022-07-29T19:55:39;100488.58;;;17.66;45.08
41467;BME280;27205;53.690;19.948;2022-07-29T20:00:42;100485.85;;;17.51;45.55
41467;BME280;27205;53.690;19.948;2022-07-29T20:05:45;100487.95;;;17.37;47.06
41467;BME280;27205;53.690;19.948;2022-07-29T20:10:53;100491.59;;;17.24;47.33
41467;BME280;27205;53.690;19.948;2022-07-29T20:15:57;100484.86;;;17.10;47.06
41467;BME280;27205;53.690;19.948;2022-07-29T20:21:01;100482.29;;;16.98;48.10
41467;BME280;27205;53.690;19.948;2022-07-29T20:26:06;100492.46;;;16.86;48.08
41467;BME280;27205;53.690;19.948;2022-07-29T20:31:11;100491.55;;;16.74;48.74
41467;BME280;27205;53.690;19.948;2022-07-29T20:36:17;100489.05;;;16.60;48.92
41467;BME280;27205;53.690;19.948;2022-07-29T20:41:21;100490.50;;;16.49;49.04
41467;BME280;27205;53.690;19.948;2022-07-29T20:46:25;100490.29;;;16.39;50.55
41467;BME280;27205;53.690;19.948;2022-07-29T20:51:29;100487.66;;;16.30;50.40
41467;BME280;27205;53.690;19.948;2022-07-29T20:56:34;100487.88;;;16.24;49.90
41467;BME280;27205;53.690;19.948;2022-07-29T21:01:37;100486.52;;;16.17;50.01
41467;BME280;27205;53.690;19.948;2022-07-29T21:06:41;100493.08;;;16.07;49.62
41467;BME280;27205;53.690;19.948;2022-07-29T21:11:44;100497.55;;;15.98;50.20
41467;BME280;27205;53.690;19.948;2022-07-29T21:16:48;100491.32;;;15.89;49.99
41467;BME280;27205;53.690;19.948;2022-07-29T21:21:52;100495.77;;;15.79;50.36
41467;BME280;27205;53.690;19.948;2022-07-29T21:26:55;100493.41;;;15.70;50.90
41467;BME280;27205;53.690;19.948;2022-07-29T21:32:23;100487.51;;;15.59;52.46
41467;BME280;27205;53.690;19.948;2022-07-29T21:37:32;100482.23;;;15.47;52.17
41467;BME280;27205;53.690;19.948;2022-07-29T21:42:35;100478.98;;;15.33;52.78
41467;BME280;27205;53.690;19.948;2022-07-29T21:47:39;100471.14;;;15.21;53.15
41467;BME280;27205;53.690;19.948;2022-07-29T21:52:42;100470.24;;;15.09;54.35
41467;BME280;27205;53.690;19.948;2022-07-29T21:57:46;100467.77;;;14.96;54.68
41467;BME280;27205;53.690;19.948;2022-07-29T22:02:49;100468.92;;;14.86;54.55
41467;BME280;27205;53.690;19.948;2022-07-29T22:07:53;100469.56;;;14.76;54.36
41467;BME280;27205;53.690;19.948;2022-07-29T22:12:59;100470.26;;;14.68;55.50
41467;BME280;27205;53.690;19.948;2022-07-29T22:18:04;100471.68;;;14.61;55.66
41467;BME280;27205;53.690;19.948;2022-07-29T22:23:08;100469.38;;;14.52;56.50
41467;BME280;27205;53.690;19.948;2022-07-29T22:28:11;100472.13;;;14.43;56.60
41467;BME280;27205;53.690;19.948;2022-07-29T22:33:15;100475.55;;;14.35;56.30
41467;BME280;27205;53.690;19.948;2022-07-29T22:38:20;100472.20;;;14.29;56.48
41467;BME280;27205;53.690;19.948;2022-07-29T22:43:23;100464.06;;;14.23;56.51
41467;BME280;27205;53.690;19.948;2022-07-29T22:48:26;100452.29;;;14.19;56.53
41467;BME280;27205;53.690;19.948;2022-07-29T22:53:29;100449.08;;;14.12;56.80
41467;BME280;27205;53.690;19.948;2022-07-29T22:58:33;100446.79;;;14.06;57.08
41467;BME280;27205;53.690;19.948;2022-07-29T23:03:37;100444.66;;;13.98;57.47
41467;BME280;27205;53.690;19.948;2022-07-29T23:08:41;100438.11;;;13.88;57.57
41467;BME280;27205;53.690;19.948;2022-07-29T23:13:45;100437.66;;;13.79;57.56
41467;BME280;27205;53.690;19.948;2022-07-29T23:18:48;100433.05;;;13.71;57.43
41467;BME280;27205;53.690;19.948;2022-07-29T23:23:53;100432.45;;;13.65;58.00
41467;BME280;27205;53.690;19.948;2022-07-29T23:28:57;100429.39;;;13.60;58.76
41467;BME280;27205;53.690;19.948;2022-07-29T23:34:01;100426.57;;;13.57;58.75
41467;BME280;27205;53.690;19.948;2022-07-29T23:39:05;100432.55;;;13.53;59.70
41467;BME280;27205;53.690;19.948;2022-07-29T23:44:13;100428.50;;;13.48;60.08
41467;BME280;27205;53.690;19.948;2022-07-29T23:49:18;100425.57;;;13.42;59.93
41467;BME280;27205;53.690;19.948;2022-07-29T23:54:21;100431.48;;;13.35;60.28
41467;BME280;27205;53.690;19.948;2022-07-29T23:59:24;100431.01;;;13.31;60.27
